Time;durP1;ratioP1;P1;durP2;ratioP2;P2;SDS_P1;SDS_P2;PMS_P1;PMS_P2;Temp;Humidity;BMP_temperature;BMP_pressure;BME280_temperature;BME280_humidity;BME280_pressure;Samples;Min_cycle;Max_cycle;Signal;HPM_P1;HPM_P2
2022/04/14 00:01:44;;;;;;;12.20;6.03;;;;;;;;;;5112644;28;20031;-76
2022/04/14 00:04:10;;;;;;;11.48;6.40;;;;;;;;;;5107343;28;20144;-75
2022/04/14 00:06:36;;;;;;;13.65;6.80;;;;;;;;;;5091946;28;20016;-75
2022/04/14 00:09:02;;;;;;;11.98;6.18;;;;;;;;;;5091846;28;20466;-75
2022/04/14 00:11:28;;;;;;;12.90;6.40;;;;;;;;;;5092041;28;20028;-75
2022/04/14 00:13:54;;;;;;;10.88;6.35;;;;;;;;;;5073603;28;20436;-75
2022/04/14 00:16:20;;;;;;;15.60;6.60;;;;;;;;;;5091876;28;20021;-75
2022/04/14 00:18:46;;;;;;;10.93;6.55;;;;;;;;;;5091720;28;20479;-75
2022/04/14 00:21:13;;;;;;;11.40;6.50;;;;;;;;;;5093651;28;20479;-77
2022/04/14 00:23:39;;;;;;;11.57;6.57;;;;;;;;;;5077601;28;20020;-74
2022/04/14 00:26:05;;;;;;;11.50;7.13;;;;;;;;;;5107117;28;20024;-76
2022/04/14 00:28:31;;;;;;;11.18;6.03;;;;;;;;;;5098002;28;20027;-76
2022/04/14 00:30:59;;;;;;;9.45;5.75;;;;;;;;;;5115387;28;20102;-77
2022/04/14 00:33:25;;;;;;;10.52;5.88;;;;;;;;;;5100518;28;20398;-76
2022/04/14 00:35:52;;;;;;;13.95;6.18;;;;;;;;;;5095521;28;20390;-74
2022/04/14 00:38:18;;;;;;;10.73;6.57;;;;;;;;;;5103348;28;20061;-74
2022/04/14 00:40:44;;;;;;;20.48;10.30;;;;;;;;;;5097781;28;20027;-76
2022/04/14 00:43:10;;;;;;;12.52;9.18;;;;;;;;;;5097753;28;20111;-76
2022/04/14 00:45:36;;;;;;;19.63;10.55;;;;;;;;;;5116248;28;20020;-76
2022/04/14 00:48:03;;;;;;;21.65;11.10;;;;;;;;;;5115603;28;20028;-75
2022/04/14 00:50:29;;;;;;;22.50;13.65;;;;;;;;;;5097509;28;20490;-75
2022/04/14 00:52:55;;;;;;;26.25;15.05;;;;;;;;;;5097478;28;20092;-75
2022/04/14 00:55:21;;;;;;;23.48;14.35;;;;;;;;;;5097143;28;20065;-76
2022/04/14 00:57:48;;;;;;;26.95;15.18;;;;;;;;;;5097245;28;20024;-76
2022/04/14 01:00:14;;;;;;;20.85;9.27;;;;;;;;;;5115583;28;20031;-77
2022/04/14 01:02:40;;;;;;;13.05;7.25;;;;;;;;;;5107343;28;20020;-75
2022/04/14 01:05:07;;;;;;;22.02;11.32;;;;;;;;;;5095147;28;20376;-76
2022/04/14 01:07:36;;;;;;;34.50;16.75;;;;;;;;;;5094912;28;20020;-76
2022/04/14 01:10:04;;;;;;;17.98;10.40;;;;;;;;;;5076975;28;20035;-76
2022/04/14 01:12:31;;;;;;;17.33;10.98;;;;;;;;;;5094954;28;20073;-75
2022/04/14 01:14:57;;;;;;;19.63;13.45;;;;;;;;;;5076879;28;20084;-75
2022/04/14 01:17:23;;;;;;;24.15;15.23;;;;;;;;;;5076776;28;20038;-76
2022/04/14 01:19:50;;;;;;;32.05;17.92;;;;;;;;;;5094662;28;20099;-75
2022/04/14 01:22:28;;;;;;;31.45;19.00;;;;;;;;;;5076682;28;20217;-75
2022/04/14 01:24:58;;;;;;;26.50;17.20;;;;;;;;;;5095086;28;20024;-75
2022/04/14 01:27:27;;;;;;;25.77;15.73;;;;;;;;;;5076538;28;20097;-75
2022/04/14 01:29:54;;;;;;;26.48;15.65;;;;;;;;;;5095733;28;20028;-75
2022/04/14 01:32:20;;;;;;;23.63;14.63;;;;;;;;;;5093495;28;20016;-75
2022/04/14 01:34:46;;;;;;;35.40;19.10;;;;;;;;;;5094356;28;20043;-75
2022/04/14 01:37:13;;;;;;;30.23;14.65;;;;;;;;;;5094410;28;20386;-74
2022/04/14 01:39:39;;;;;;;27.92;16.35;;;;;;;;;;5094451;28;20471;-76
2022/04/14 01:42:05;;;;;;;20.42;12.85;;;;;;;;;;5094777;28;20028;-76
2022/04/14 01:44:32;;;;;;;23.55;14.30;;;;;;;;;;5076230;28;20128;-75
2022/04/14 01:46:58;;;;;;;29.73;15.40;;;;;;;;;;5076250;28;20020;-75
2022/04/14 01:49:24;;;;;;;23.70;12.57;;;;;;;;;;5094339;28;20020;-75
2022/04/14 01:51:50;;;;;;;15.13;9.13;;;;;;;;;;5075976;28;20516;-75
2022/04/14 01:54:17;;;;;;;19.75;10.57;;;;;;;;;;5075883;28;20036;-75
2022/04/14 01:56:44;;;;;;;18.52;9.90;;;;;;;;;;5075991;28;20063;-76
2022/04/14 01:59:10;;;;;;;20.55;10.00;;;;;;;;;;5075991;28;20027;-77
2022/04/14 02:01:36;;;;;;;24.42;12.55;;;;;;;;;;5094116;28;20024;-76
2022/04/14 02:04:02;;;;;;;21.10;10.25;;;;;;;;;;5093984;28;20044;-76
2022/04/14 02:06:31;;;;;;;26.05;11.65;;;;;;;;;;5094177;28;20024;-76
2022/04/14 02:08:57;;;;;;;27.25;12.40;;;;;;;;;;5093780;28;20069;-76
2022/04/14 02:11:23;;;;;;;19.95;11.38;;;;;;;;;;5093926;28;20453;-75
2022/04/14 02:13:50;;;;;;;16.90;8.98;;;;;;;;;;5075781;28;20036;-78
2022/04/14 02:16:16;;;;;;;15.50;7.72;;;;;;;;;;5097407;28;20198;-77
2022/04/14 02:18:43;;;;;;;16.70;8.95;;;;;;;;;;5087950;28;20364;-75
2022/04/14 02:21:09;;;;;;;15.25;8.52;;;;;;;;;;5094052;28;20027;-76
2022/04/14 02:23:35;;;;;;;10.55;5.82;;;;;;;;;;5075594;28;20024;-76
2022/04/14 02:26:01;;;;;;;12.27;7.18;;;;;;;;;;5075501;28;20020;-76
2022/04/14 02:28:27;;;;;;;16.30;7.18;;;;;;;;;;5075507;28;20101;-75
2022/04/14 02:30:53;;;;;;;11.68;6.28;;;;;;;;;;5075403;28;20020;-75
2022/04/14 02:33:19;;;;;;;12.07;8.15;;;;;;;;;;5075306;28;20043;-76
2022/04/14 02:35:46;;;;;;;18.00;8.45;;;128.00;2252.80;;;;;;5093293;28;20020;-76
2022/04/14 02:38:12;;;;;;;13.77;8.93;;;103.30;2227.20;;;;;;5093333;28;20022;-77
2022/04/14 02:40:38;;;;;;;17.50;8.57;;;103.20;2227.20;;;;;;5093448;28;20055;-76
2022/04/14 02:43:04;;;;;;;14.38;9.82;;;103.20;2227.20;;;;;;5093164;28;20024;-77
2022/04/14 02:45:30;;;;;;;15.63;10.25;;;103.10;2227.20;;;;;;5107096;28;20032;-76
2022/04/14 02:47:55;;;;;;;13.80;9.10;;;103.00;2227.20;;;;;;5113548;28;20072;-76
2022/04/14 02:50:22;;;;;;;18.70;10.57;;;103.10;2227.20;;;;;;5095231;28;20034;-76
2022/04/14 02:52:49;;;;;;;15.32;9.77;;;103.10;2227.20;;;;;;5113457;28;20035;-77
2022/04/14 02:55:16;;;;;;;17.52;9.20;;;103.00;2227.20;;;;;;5113215;28;20371;-76
2022/04/14 02:57:42;;;;;;;14.40;9.82;;;103.10;2227.20;;;;;;5113753;28;20032;-75
2022/04/14 03:00:11;;;;;;;18.35;9.00;;;103.10;2227.20;;;;;;5113144;28;20032;-76
2022/04/14 03:02:38;;;;;;;12.38;8.15;;;103.20;2227.20;;;;;;5095048;28;20382;-76
2022/04/14 03:05:05;;;;;;;20.35;8.57;;;103.20;2227.20;;;;;;5100086;28;20078;-76
2022/04/14 03:07:31;;;;;;;20.50;11.40;;;103.20;2227.20;;;;;;5093044;28;20028;-76
2022/04/14 03:09:57;;;;;;;21.88;10.35;;;103.20;2227.20;;;;;;5092903;28;20103;-75
2022/04/14 03:12:23;;;;;;;14.55;9.35;;;103.20;2227.20;;;;;;5074437;28;20119;-76
2022/04/14 03:14:49;;;;;;;16.02;9.85;;;103.20;2227.20;;;;;;5092677;28;20364;-74
2022/04/14 03:17:15;;;;;;;14.25;9.05;;;103.10;2227.20;;;;;;5092738;28;20031;-76
2022/04/14 03:19:41;;;;;;;16.60;8.45;;;103.10;2227.20;;;;;;5074433;28;20028;-75
2022/04/14 03:22:06;;;;;;;14.13;9.05;;;103.00;2227.20;;;;;;5074383;28;20020;-75
2022/04/14 03:24:32;;;;;;;16.60;10.50;;;103.20;2227.20;;;;;;5074386;28;20344;-76
2022/04/14 03:26:58;;;;;;;13.05;8.07;;;103.10;2227.20;;;;;;5073906;28;20028;-75
2022/04/14 03:29:24;;;;;;;18.80;11.07;;;103.00;2227.20;;;;;;5092449;28;20039;-76
2022/04/14 03:31:50;;;;;;;37.05;18.92;;;102.80;2227.20;;;;;;5074087;28;20024;-76
2022/04/14 03:34:15;;;;;;;16.67;7.78;;;102.80;2227.20;;;;;;5074176;28;20040;-76
2022/04/14 03:36:41;;;;;;;14.95;8.48;;;;;;;;;;5083894;28;20031;-75
2022/04/14 03:39:07;;;;;;;11.95;5.97;;;;;;;;;;5075477;28;20020;-75
2022/04/14 03:41:33;;;;;;;13.95;7.75;;;102.70;2227.20;;;;;;5097198;28;20160;-76
2022/04/14 03:43:59;;;;;;;17.27;8.32;;;102.70;2227.20;;;;;;5094303;28;20531;-76
2022/04/14 03:46:25;;;;;;;17.55;9.07;;;102.60;2227.20;;;;;;5112786;28;20076;-76
2022/04/14 03:48:51;;;;;;;16.48;7.28;;;102.70;2227.20;;;;;;5109072;28;20027;-75
2022/04/14 03:51:16;;;;;;;12.90;9.07;;;102.40;2227.20;;;;;;5100428;28;20362;-76
2022/04/14 03:53:43;;;;;;;18.50;9.02;;;102.40;2227.20;;;;;;5090709;28;20679;-75
2022/04/14 03:56:10;;;;;;;16.58;9.13;;;77.70;2227.20;;;;;;5073345;28;20031;-76
2022/04/14 03:58:36;;;;;;;20.48;9.38;;;102.50;2227.20;;;;;;5092088;28;20030;-77
2022/04/14 04:01:01;;;;;;;21.00;9.05;;;102.50;2227.20;;;;;;5099330;28;20389;-77
2022/04/14 04:03:27;;;;;;;19.85;8.80;;;102.50;2227.20;;;;;;5110600;28;20030;-76
2022/04/14 04:05:53;;;;;;;14.38;8.38;;;102.50;2227.20;;;;;;5111692;28;20036;-77
2022/04/14 04:08:19;;;;;;;12.52;7.63;;;102.50;2227.20;;;;;;5111862;28;20034;-82
2022/04/14 04:10:45;;;;;;;18.35;10.48;;;102.50;2227.20;;;;;;5112027;28;20358;-77
2022/04/14 04:13:11;;;;;;;23.48;11.38;;;102.40;2227.20;;;;;;5111367;28;20470;-77
2022/04/14 04:15:37;;;;;;;19.23;12.40;;;77.70;2227.20;;;;;;5111167;28;20031;-76
2022/04/14 04:18:05;;;;;;;18.15;11.48;;;77.70;2227.20;;;;;;5111156;28;20394;-76
2022/04/14 04:20:31;;;;;;;33.25;22.17;;;77.70;2227.20;;;;;;5093095;28;20080;-77
2022/04/14 04:22:57;;;;;;;27.05;15.18;;;102.60;2227.20;;;;;;5110958;28;20106;-77
2022/04/14 04:25:23;;;;;;;27.02;16.23;;;102.80;2227.20;;;;;;5109833;28;20114;-76
2022/04/14 04:27:48;;;;;;;44.53;23.98;;;102.90;2227.20;;;;;;5113862;28;20463;-76
2022/04/14 04:30:14;;;;;;;36.03;21.38;;;103.00;2227.20;;;;;;5092714;28;20016;-76
2022/04/14 04:32:41;;;;;;;29.80;17.02;;;103.10;2227.20;;;;;;5094001;28;20086;-76
2022/04/14 04:35:07;;;;;;;35.90;16.88;;;103.10;2227.20;;;;;;5096353;28;20506;-76
2022/04/14 04:37:33;;;;;;;29.50;15.30;;;103.00;2227.20;;;;;;5093214;28;20424;-76
2022/04/14 04:39:59;;;;;;;40.67;16.80;;;103.10;2227.20;;;;;;5111738;28;20463;-77
2022/04/14 04:42:25;;;;;;;31.77;15.80;;;103.20;2227.20;;;;;;5110024;28;20494;-76
2022/04/14 04:44:51;;;;;;;34.72;17.23;;;103.30;2227.20;;;;;;5111199;28;20356;-75
2022/04/14 04:47:20;;;;;;;40.17;17.10;;;128.00;2252.80;;;;;;5103082;28;20024;-78
2022/04/14 04:49:46;;;;;;;30.40;13.80;;;128.00;2252.80;;;;;;5110407;28;20038;-77
2022/04/14 04:52:11;;;;;;;31.70;16.73;;;103.20;2227.20;;;;;;5092824;28;20110;-78
2022/04/14 04:54:37;;;;;;;29.42;16.48;;;128.00;2252.80;;;;;;5111687;28;20118;-76
2022/04/14 04:57:03;;;;;;;27.38;15.52;;;128.00;2252.80;;;;;;5111417;28;20474;-77
2022/04/14 04:59:29;;;;;;;25.38;14.98;;;128.20;2252.80;;;;;;5111486;28;20084;-77
2022/04/14 05:01:55;;;;;;;30.92;14.38;;;128.30;2252.80;;;;;;5103746;28;20458;-77
2022/04/14 05:04:21;;;;;;;28.02;14.90;;;;;;;;;;5090730;28;20050;-76
2022/04/14 05:06:47;;;;;;;26.17;15.18;;;;;;;;;;5092492;28;20016;-77
2022/04/14 05:09:13;;;;;;;32.42;15.88;;;153.60;2252.80;;;;;;5095983;28;20022;-77
2022/04/14 05:11:39;;;;;;;32.42;15.63;;;;;;;;;;5103203;28;20099;-78
2022/04/14 05:14:05;;;;;;;26.98;14.57;;;;;;;;;;5094852;28;20495;-78
2022/04/14 05:16:31;;;;;;;46.05;18.60;;;;;;;;;;5102304;28;20019;-79
2022/04/14 05:18:57;;;;;;;43.88;17.08;;;;;;;;;;5113349;28;20019;-78
2022/04/14 05:21:23;;;;;;;44.55;16.90;;;;;;;;;;5113248;27;20076;-76
2022/04/14 05:23:49;;;;;;;33.80;15.60;;;;;;;;;;5094195;28;20125;-78
2022/04/14 05:26:15;;;;;;;28.58;16.55;;;;;;;;;;5109342;28;20102;-76
2022/04/14 05:28:42;;;;;;;38.13;15.80;;;;;;;;;;5099715;27;20069;-75
2022/04/14 05:31:08;;;;;;;40.00;16.08;;;;;;;;;;5108600;27;20032;-88
2022/04/14 05:33:34;;;;;;;33.70;18.30;;;;;;;;;;5095380;28;20146;-82
2022/04/14 05:36:00;;;;;;;42.17;17.13;;;;;;;;;;5098605;27;20054;-82
2022/04/14 05:38:27;;;;;;;33.38;17.05;;;;;;;;;;5095872;28;20016;-86
2022/04/14 05:40:54;;;;;;;38.38;19.23;;;;;;;;;;5098938;28;20019;-81
2022/04/14 05:43:30;;;;;;;44.67;17.80;;;;;;;;;;5095771;28;20022;-85
2022/04/14 05:45:56;;;;;;;38.10;18.90;;;;;;;;;;5092876;28;20043;-84
2022/04/14 05:48:22;;;;;;;32.03;18.73;;;;;;;;;;5096799;27;20027;-83
2022/04/14 05:50:49;;;;;;;32.78;17.02;;;;;;;;;;5093439;28;20022;-84
2022/04/14 05:53:16;;;;;;;33.03;18.40;;;;;;;;;;5114736;28;20050;-80
2022/04/14 05:55:42;;;;;;;46.08;19.13;;;;;;;;;;5102197;27;20035;-84
2022/04/14 05:58:09;;;;;;;38.63;20.30;;;;;;;;;;5075729;28;20112;-80
2022/04/14 06:00:35;;;;;;;41.95;18.45;;;;;;;;;;5074173;28;20077;-83
2022/04/14 06:03:02;;;;;;;51.40;24.65;;;;;;;;;;5093657;28;20151;-84
2022/04/14 06:05:29;;;;;;;43.22;22.45;;;;;;;;;;5094855;28;20051;-84
2022/04/14 06:07:55;;;;;;;43.78;23.05;;;;;;;;;;5092490;28;20635;-82
2022/04/14 06:10:22;;;;;;;50.38;25.27;;;;;;;;;;5074474;28;20013;-83
2022/04/14 06:12:49;;;;;;;51.30;25.73;;;;;;;;;;5091956;28;20487;-81
2022/04/14 06:15:15;;;;;;;46.95;21.95;;;;;;;;;;5092276;28;20012;-80
2022/04/14 06:17:44;;;;;;;37.58;20.88;;;;;;;;;;5092524;28;20024;-82
2022/04/14 06:20:13;;;;;;;41.92;20.85;;;;;;;;;;5092544;28;20016;-83
2022/04/14 06:22:39;;;;;;;33.13;16.90;;;;;;;;;;5076013;28;20109;-82
2022/04/14 06:25:12;;;;;;;43.38;16.65;;;;;;;;;;5076214;28;20478;-83
2022/04/14 06:27:39;;;;;;;41.80;18.15;;;;;;;;;;5076046;28;20024;-82
2022/04/14 06:30:06;;;;;;;42.90;20.52;;;;;;;;;;5094019;28;20062;-83
2022/04/14 06:32:32;;;;;;;43.97;18.38;;;;;;;;;;5093648;28;20027;-82
2022/04/14 06:34:58;;;;;;;44.78;24.35;;;;;;;;;;5075809;28;20020;-82
2022/04/14 06:37:24;;;;;;;44.00;24.35;;;;;;;;;;5075032;28;20016;-81
2022/04/14 06:39:50;;;;;;;38.22;20.58;;;;;;;;;;5093675;28;20020;-82
2022/04/14 06:42:16;;;;;;;33.50;19.20;;;;;;;;;;5075523;28;20046;-81
2022/04/14 06:44:42;;;;;;;33.28;17.77;;;;;;;;;;5091340;28;20030;-82
2022/04/14 06:47:08;;;;;;;43.47;18.05;;;;;;;;;;5113560;28;20110;-79
2022/04/14 06:49:34;;;;;;;35.03;17.63;;;;;;;;;;5113897;28;20068;-80
2022/04/14 06:52:02;;;;;;;26.17;15.13;;;;;;;;;;5113835;28;20044;-80
2022/04/14 06:54:28;;;;;;;45.85;18.48;;;;;;;;;;5113875;28;20062;-84
2022/04/14 06:56:54;;;;;;;27.23;13.60;;;;;;;;;;5114828;28;20023;-82
2022/04/14 06:59:20;;;;;;;33.03;13.18;;;;;;;;;;5097501;28;20028;-82
2022/04/14 07:01:46;;;;;;;26.02;13.52;;;;;;;;;;5114118;28;20051;-81
2022/04/14 07:04:12;;;;;;;34.97;14.23;;;;;;;;;;5113310;28;20047;-81
2022/04/14 07:06:38;;;;;;;34.10;14.40;;;;;;;;;;5113462;28;20022;-81
2022/04/14 07:09:04;;;;;;;25.35;13.25;;;;;;;;;;5113558;28;20498;-82
2022/04/14 07:11:30;;;;;;;29.23;14.13;;;;;;;;;;5095376;28;20376;-79
2022/04/14 07:13:58;;;;;;;23.00;13.57;;;;;;;;;;5095149;28;20028;-82
2022/04/14 07:16:25;;;;;;;20.85;11.65;;;;;;;;;;5095560;28;20027;-79
2022/04/14 07:18:51;;;;;;;29.63;12.55;;;;;;;;;;5113535;28;20374;-82
2022/04/14 07:21:17;;;;;;;32.08;10.93;;;;;;;;;;5113399;28;20024;-80
2022/04/14 07:23:44;;;;;;;26.98;12.73;;;;;;;;;;5113605;28;20023;-83
2022/04/14 07:26:10;;;;;;;30.75;13.95;;;;;;;;;;5113314;28;20502;-81
2022/04/14 07:28:36;;;;;;;30.60;15.75;;;;;;;;;;5094646;28;20482;-80
2022/04/14 07:31:02;;;;;;;34.42;12.70;;;;;;;;;;5112059;28;20046;-80
2022/04/14 07:33:28;;;;;;;20.35;11.00;;;;;;;;;;5112826;28;20416;-80
2022/04/14 07:35:54;;;;;;;21.88;12.13;;;;;;;;;;5094516;28;20028;-79
2022/04/14 07:38:20;;;;;;;26.27;13.90;;;;;;;;;;5094284;28;20359;-79
2022/04/14 07:40:46;;;;;;;31.70;15.15;;;;;;;;;;5112083;28;20038;-80
2022/04/14 07:43:13;;;;;;;20.92;12.80;;;;;;;;;;5094322;28;20022;-79
2022/04/14 07:45:39;;;;;;;26.70;16.08;;;;;;;;;;5094390;28;20024;-79
2022/04/14 07:48:05;;;;;;;47.83;12.48;;;;;;;;;;5112546;28;20016;-79
2022/04/14 07:50:32;;;;;;;28.10;17.77;;;;;;;;;;5112671;28;20020;-80
2022/04/14 07:52:59;;;;;;;27.63;17.00;;;;;;;;;;5094132;28;20032;-78
2022/04/14 07:55:25;;;;;;;20.83;10.93;;;;;;;;;;5094280;28;20027;-79
2022/04/14 07:57:52;;;;;;;30.65;13.13;;;;;;;;;;5094287;28;20383;-79
2022/04/14 08:00:19;;;;;;;19.30;12.95;;;;;;;;;;5112641;28;20031;-78
2022/04/14 08:02:49;;;;;;;22.20;11.45;;;;;;;;;;5113009;28;20046;-80
2022/04/14 08:05:15;;;;;;;22.42;12.38;;;;;;;;;;5090791;28;20487;-80
2022/04/14 08:07:42;;;;;;;18.23;10.80;;;;;;;;;;5092143;28;20020;-80
2022/04/14 08:10:08;;;;;;;29.13;19.67;;;;;;;;;;5090810;28;20525;-78
2022/04/14 08:12:34;;;;;;;19.00;12.50;;;;;;;;;;5090817;28;20016;-79
2022/04/14 08:15:00;;;;;;;19.33;11.57;;;;;;;;;;5092043;28;20103;-80
2022/04/14 08:17:26;;;;;;;15.60;10.75;;;;;;;;;;5090969;28;20065;-78
2022/04/14 08:19:52;;;;;;;21.73;9.65;;;;;;;;;;5090264;28;20020;-79
2022/04/14 08:22:18;;;;;;;16.65;10.93;;;;;;;;;;5090403;28;20024;-78
2022/04/14 08:24:47;;;;;;;25.05;11.18;;;;;;;;;;5090829;28;20025;-77
2022/04/14 08:27:13;;;;;;;36.17;16.88;;;;;;;;;;5091490;28;20020;-78
2022/04/14 08:29:39;;;;;;;25.40;13.98;;;;;;;;;;5089992;28;20024;-79
2022/04/14 08:32:09;;;;;;;14.60;8.88;;;;;;;;;;5091622;28;20016;-77
2022/04/14 08:34:36;;;;;;;21.33;11.95;;;;;;;;;;5090339;28;20391;-78
2022/04/14 08:37:02;;;;;;;28.40;12.85;;;;;;;;;;5090355;28;20022;-77
2022/04/14 08:39:29;;;;;;;20.67;11.00;;;;;;;;;;5090238;28;20113;-78
2022/04/14 08:42:01;;;;;;;16.48;9.15;;;;;;;;;;5091929;28;20044;-77
2022/04/14 08:44:30;;;;;;;19.17;11.23;;;;;;;;;;5094323;28;20150;-78
2022/04/14 08:46:58;;;;;;;19.35;11.57;;;;;;;;;;5094512;28;20073;-77
2022/04/14 08:49:24;;;;;;;21.10;12.57;;;;;;;;;;5095878;28;20073;-79
2022/04/14 08:51:51;;;;;;;21.02;14.60;;;;;;;;;;5094206;28;20461;-77
2022/04/14 08:54:19;;;;;;;21.92;11.15;;;;;;;;;;5094287;28;20043;-77
2022/04/14 08:56:47;;;;;;;22.23;12.02;;;;;;;;;;5094572;28;20261;-78
2022/04/14 08:59:13;;;;;;;29.27;12.32;;;;;;;;;;5094272;28;20387;-79
2022/04/14 09:01:39;;;;;;;14.55;9.93;;;;;;;;;;5095368;28;20028;-77
2022/04/14 09:04:06;;;;;;;26.73;16.70;;;;;;;;;;5099986;28;20126;-78
2022/04/14 09:06:32;;;;;;;25.95;17.15;;;;;;;;;;5098332;28;20020;-77
2022/04/14 09:09:01;;;;;;;15.40;9.27;;;;;;;;;;5097186;28;20103;-77
2022/04/14 09:11:30;;;;;;;27.73;14.23;;;;;;;;;;5097054;28;20019;-80
2022/04/14 09:13:56;;;;;;;33.38;19.33;;;;;;;;;;5097045;28;20474;-78
2022/04/14 09:16:23;;;;;;;20.42;12.43;;;;;;;;;;5097299;28;20019;-79
2022/04/14 09:18:49;;;;;;;24.08;12.30;;;;;;;;;;5097279;28;20118;-79
2022/04/14 09:21:15;;;;;;;21.35;11.73;;;;;;;;;;5097089;28;20023;-78
2022/04/14 09:23:49;;;;;;;24.13;11.23;;;;;;;;;;5096833;28;20034;-76
2022/04/14 09:26:22;;;;;;;31.73;20.55;;;;;;;;;;5097058;28;20467;-79
2022/04/14 09:29:05;;;;;;;17.70;12.43;;;;;;;;;;5097056;28;20659;-80
2022/04/14 09:31:44;;;;;;;15.95;10.32;;;;;;;;;;5097379;28;20449;-78
2022/04/14 09:34:11;;;;;;;22.45;12.07;;;;;;;;;;5097275;28;20038;-78
2022/04/14 09:36:37;;;;;;;14.25;7.82;;;;;;;;;;5097058;28;20407;-79
2022/04/14 09:39:07;;;;;;;28.88;19.55;;;;;;;;;;5096791;28;20027;-78
2022/04/14 09:41:33;;;;;;;15.05;10.20;;;;;;;;;;5097284;28;20020;-78
2022/04/14 09:44:03;;;;;;;39.53;16.98;;;;;;;;;;5096655;28;20020;-78
2022/04/14 09:46:29;;;;;;;7.85;5.40;;;;;;;;;;5096926;28;20387;-79
2022/04/14 09:49:01;;;;;;;14.77;8.70;;;;;;;;;;5096281;28;20016;-78
2022/04/14 09:51:27;;;;;;;35.13;24.48;;;;;;;;;;5096851;28;20157;-78
2022/04/14 09:54:04;;;;;;;24.17;16.65;;;;;;;;;;5113949;28;20027;-77
2022/04/14 09:56:41;;;;;;;14.35;9.98;;;;;;;;;;5096928;28;20023;-79
2022/04/14 09:59:08;;;;;;;14.77;7.70;;;;;;;;;;5096511;28;20031;-78
2022/04/14 10:01:34;;;;;;;13.05;8.00;;;;;;;;;;5096669;28;20047;-78
2022/04/14 10:04:01;;;;;;;10.55;6.07;;;;;;;;;;5095976;28;20051;-78
2022/04/14 10:06:27;;;;;;;19.05;11.00;;;;;;;;;;5096541;28;20043;-78
2022/04/14 10:08:53;;;;;;;18.63;12.63;;;;;;;;;;5098471;28;20027;-79
2022/04/14 10:11:30;;;;;;;13.52;9.63;;;;;;;;;;5095929;28;20024;-77
2022/04/14 10:14:24;;;;;;;14.20;7.72;;;;;;;;;;5093729;28;20126;-78
2022/04/14 10:16:50;;;;;;;11.05;6.53;;;;;;;;;;5076631;28;20039;-77
2022/04/14 10:19:17;;;;;;;13.25;9.10;;;;;;;;;;5099697;28;20024;-76
2022/04/14 10:21:44;;;;;;;15.23;9.57;;;;;;;;;;5105004;28;20062;-77
2022/04/14 10:24:12;;;;;;;25.17;16.52;;;;;;;;;;5101352;28;20039;-76
2022/04/14 10:26:38;;;;;;;10.15;7.65;;;;;;;;;;5117422;28;20044;-77
2022/04/14 10:29:06;;;;;;;14.85;7.85;;;;;;;;;;5094979;28;20020;-77
2022/04/14 10:31:39;;;;;;;15.98;6.65;;;;;;;;;;5095072;28;20390;-78
2022/04/14 10:34:06;;;;;;;26.85;21.15;;;;;;;;;;5095190;28;20027;-78
2022/04/14 10:36:37;;;;;;;15.32;8.25;;;;;;;;;;5095618;28;20020;-78
2022/04/14 10:39:03;;;;;;;13.45;7.97;;;;;;;;;;5094774;28;20062;-79
2022/04/14 10:41:32;;;;;;;23.88;14.88;;;;;;;;;;5095116;28;20019;-78
2022/04/14 10:44:02;;;;;;;15.45;6.57;;;;;;;;;;5095943;28;20031;-77
2022/04/14 10:46:32;;;;;;;13.50;7.43;;;;;;;;;;5114272;28;20024;-78
2022/04/14 10:49:15;;;;;;;15.10;7.75;;;;;;;;;;5095516;28;20371;-78
2022/04/14 10:51:41;;;;;;;9.10;6.05;;;;;;;;;;5095451;28;20031;-77
2022/04/14 10:54:11;;;;;;;11.43;8.75;;;;;;;;;;5094782;28;20039;-78
2022/04/14 10:56:37;;;;;;;15.35;10.30;;;;;;;;;;5095152;28;20474;-77
2022/04/14 10:59:11;;;;;;;18.90;6.68;;;;;;;;;;5094740;28;20068;-77
2022/04/14 11:01:52;;;;;;;8.60;6.35;;;;;;;;;;5095393;28;20376;-79
2022/04/14 11:04:34;;;;;;;15.60;7.47;;;;;;;;;;5095127;28;20127;-78
2022/04/14 11:07:32;;;;;;;9.07;5.55;;;;;;;;;;5095541;28;20034;-79
2022/04/14 11:09:59;;;;;;;7.88;4.93;;;;;;;;;;5051194;28;20046;-78
2022/04/14 11:12:51;;;;;;;7.47;5.20;;;;;;;;;;5113561;28;20026;-76
2022/04/14 11:15:33;;;;;;;13.43;6.22;;;;;;;;;;5094415;28;20028;-78
2022/04/14 11:18:04;;;;;;;8.88;4.88;;;;;;;;;;5120626;28;20039;-76
2022/04/14 11:20:30;;;;;;;16.02;8.75;;;;;;;;;;5107228;28;20039;-77
2022/04/14 11:23:02;;;;;;;11.82;6.28;;;;;;;;;;5106217;28;20024;-77
2022/04/14 11:25:41;;;;;;;18.15;8.32;;;;;;;;;;5095019;28;20024;-77
2022/04/14 11:28:26;;;;;;;20.20;10.20;;;;;;;;;;5112937;28;20103;-78
2022/04/14 11:31:23;;;;;;;14.25;10.23;;;;;;;;;;5095134;28;20020;-76
2022/04/14 11:33:50;;;;;;;14.50;9.20;;;;;;;;;;5077565;28;20130;-78
2022/04/14 11:36:20;;;;;;;10.20;8.13;;;;;;;;;;5094488;28;20424;-77
2022/04/14 11:38:51;;;;;;;17.55;13.00;;;;;;;;;;5094321;28;20557;-79
2022/04/14 11:41:29;;;;;;;10.30;5.78;;;;;;;;;;5094463;28;20016;-78
2022/04/14 11:43:56;;;;;;;6.20;4.43;;;;;;;;;;5094508;28;20023;-76
2022/04/14 11:46:25;;;;;;;16.77;13.93;;;;;;;;;;5094503;28;20104;-79
2022/04/14 11:48:51;;;;;;;26.38;18.17;;;;;;;;;;5094442;28;20020;-77
2022/04/14 11:51:17;;;;;;;65.88;11.43;;;;;;;;;;5094229;28;20020;-77
2022/04/14 11:53:44;;;;;;;24.13;11.98;;;;;;;;;;5093308;28;20080;-78
2022/04/14 11:56:19;;;;;;;8.43;4.72;;;665.70;742.40;;;;;;5093852;28;20024;-78
2022/04/14 11:58:45;;;;;;;11.98;4.30;;;666.40;742.40;;;;;;5094023;28;20534;-77
2022/04/14 12:01:12;;;;;;;9.18;4.55;;;717.20;742.40;;;;;;5112802;28;20095;-78
2022/04/14 12:03:38;;;;;;;15.93;7.03;;;;;;;;;;5112040;28;20028;-77
2022/04/14 12:06:06;;;;;;;13.88;6.32;;;;;;;;;;5093884;28;20141;-78
2022/04/14 12:08:32;;;;;;;8.98;4.50;;;;;;;;;;5093950;28;20030;-75
2022/04/14 12:11:02;;;;;;;6.22;3.97;;;;;;;;;;5093861;28;20024;-77
2022/04/14 12:13:28;;;;;;;10.32;6.85;;;;;;;;;;5095407;28;20476;-78
2022/04/14 12:16:05;;;;;;;11.98;5.10;;;;;;;;;;5093253;28;20479;-78
2022/04/14 12:18:31;;;;;;;16.98;6.90;;;;;;;;;;5094055;28;20023;-74
2022/04/14 12:20:57;;;;;;;11.93;7.63;;;;;;;;;;5093513;28;20020;-79
2022/04/14 12:23:23;;;;;;;17.23;7.22;;;;;;;;;;5111818;28;20034;-78
2022/04/14 12:25:52;;;;;;;11.90;3.92;;;;;;;;;;5093534;28;20019;-76
2022/04/14 12:28:18;;;;;;;22.38;9.80;;;;;;;;;;5093496;28;20073;-77
2022/04/14 12:30:45;;;;;;;13.20;5.72;;;;;;;;;;5111813;28;20016;-77
2022/04/14 12:33:11;;;;;;;81.65;45.97;;;;;;;;;;5092683;28;20070;-79
2022/04/14 12:35:41;;;;;;;15.77;9.68;;;;;;;;;;5111962;28;20413;-77
2022/04/14 12:38:28;;;;;;;15.55;6.80;;;;;;;;;;5093251;28;20467;-78
2022/04/14 12:40:55;;;;;;;4.97;3.88;;;;;;;;;;5093382;28;20031;-78
2022/04/14 12:43:22;;;;;;;8.50;5.75;;;;;;;;;;5111856;28;20023;-78
2022/04/14 12:45:48;;;;;;;6.03;4.80;;;;;;;;;;5112056;28;20024;-78
2022/04/14 12:48:24;;;;;;;5.75;1.90;;;;;;;;;;5111486;28;20019;-78
2022/04/14 12:50:54;;;;;;;7.68;3.28;;;;;;;;;;5093493;28;20020;-76
2022/04/14 12:53:24;;;;;;;9.82;7.32;;;;;;;;;;5093399;28;20028;-79
2022/04/14 12:55:51;;;;;;;7.25;4.45;;;;;;;;;;5110822;28;20020;-79
2022/04/14 12:58:17;;;;;;;6.25;2.95;;;;;;;;;;5111275;28;20019;-76
2022/04/14 13:00:43;;;;;;;6.07;3.15;;;;;;;;;;5108371;28;20022;-76
2022/04/14 13:03:16;;;;;;;4.47;2.80;;;;;;;;;;5092636;28;20027;-76
2022/04/14 13:05:45;;;;;;;7.75;2.70;;;;;;;;;;5110945;28;20151;-79
2022/04/14 13:08:12;;;;;;;13.30;10.27;;;;;;;;;;5110571;28;20012;-78
2022/04/14 13:10:42;;;;;;;11.90;3.85;;;;;;;;;;5110606;28;20139;-79
2022/04/14 13:13:09;;;;;;;15.27;13.35;;;;;;;;;;5110297;28;20139;-76
2022/04/14 13:15:37;;;;;;;13.77;8.63;;;;;;;;;;5111889;28;20096;-75
2022/04/14 13:18:03;;;;;;;24.45;22.00;;;;;;;;;;5111030;28;20047;-77
2022/04/14 13:20:32;;;;;;;22.73;20.52;;;;;;;;;;5091026;28;20093;-77
2022/04/14 13:22:59;;;;;;;37.15;33.40;;;;;;;;;;5098231;28;20032;-77
2022/04/14 13:25:26;;;;;;;23.08;20.88;;;;;;;;;;5110650;28;20023;-78
2022/04/14 13:27:52;;;;;;;14.20;12.60;;;;;;;;;;5110515;28;20111;-77
2022/04/14 13:30:18;;;;;;;24.15;21.13;;;;;;;;;;5113923;28;20023;-79
2022/04/14 13:32:44;;;;;;;19.95;16.80;;;;;;;;;;5113831;28;20016;-76
2022/04/14 13:35:11;;;;;;;45.42;40.80;;;;;;;;;;5094257;28;20020;-78
2022/04/14 13:37:37;;;;;;;22.15;18.67;;;;;;;;;;5095541;28;20412;-79
2022/04/14 13:40:04;;;;;;;17.00;14.82;;;;;;;;;;5117920;27;20033;-77
2022/04/14 13:42:31;;;;;;;20.70;17.67;;;;;;;;;;5087386;28;20103;-76
2022/04/14 13:44:57;;;;;;;19.77;15.23;;;;;;;;;;5096172;28;20590;-76
2022/04/14 13:47:24;;;;;;;39.78;36.10;;;;;;;;;;5116471;27;20462;-78
2022/04/14 13:49:50;;;;;;;46.78;42.15;;;;;;;;;;5125899;27;20016;-79
2022/04/14 13:52:16;;;;;;;24.15;21.65;;;;;;;;;;5095348;28;20016;-76
2022/04/14 13:54:42;;;;;;;77.78;70.28;;;;;;;;;;5095158;28;20507;-78
2022/04/14 13:57:08;;;;;;;19.98;18.00;;;;;;;;;;5113314;28;20015;-75